Time;durP1;ratioP1;P1;durP2;ratioP2;P2;SDS_P1;SDS_P2;PMS_P1;PMS_P2;Temp;Humidity;BMP_temperature;BMP_pressure;BME280_temperature;BME280_humidity;BME280_pressure;Samples;Min_cycle;Max_cycle;Signal;HPM_P1;HPM_P2
2023/12/10 00:00:12;;;;;;;;;;;;;;;8.79;88.86;99797.22;5009207;28;20310;-63
2023/12/10 00:02:37;;;;;;;;;;;;;;;8.77;88.65;99791.28;5023157;28;20374;-64
2023/12/10 00:05:03;;;;;;;;;;;;;;;8.84;88.34;99797.47;5014351;28;19935;-64
2023/12/10 00:07:28;;;;;;;;;;;;;;;8.86;88.36;99811.34;5019125;28;19959;-63
2023/12/10 00:09:53;;;;;;;;;;;;;;;8.90;88.03;99804.69;5017914;28;19925;-63
2023/12/10 00:12:18;;;;;;;;;;;;;;;8.93;88.12;99809.59;5017974;28;19968;-64
2023/12/10 00:14:46;;;;;;;;;;;;;;;8.98;87.48;99811.72;5016145;28;19925;-64
2023/12/10 00:17:12;;;;;;;;;;;;;;;8.99;87.80;99813.34;5018999;28;20683;-64
2023/12/10 00:19:37;;;;;;;;;;;;;;;9.00;87.12;99810.53;5016196;28;20036;-63
2023/12/10 00:22:02;;;;;;;;;;;;;;;9.04;87.11;99810.16;5021606;28;19921;-63
2023/12/10 00:24:27;;;;;;;;;;;;;;;9.00;87.26;99815.81;5010336;28;19922;-63
2023/12/10 00:26:53;;;;;;;;;;;;;;;8.96;87.31;99840.19;5014627;28;19936;-63
2023/12/10 00:29:18;;;;;;;;;;;;;;;9.03;87.01;99853.53;5009932;28;19921;-63
2023/12/10 00:31:44;;;;;;;;;;;;;;;9.02;87.12;99844.75;5010723;28;19921;-63
2023/12/10 00:34:09;;;;;;;;;;;;;;;8.91;87.20;99822.19;5016531;28;19920;-63
2023/12/10 00:36:34;;;;;;;;;;;;;;;8.82;87.69;99841.03;5014986;28;20016;-63
2023/12/10 00:38:59;;;;;;;;;;;;;;;8.72;88.65;99833.38;5014762;28;20048;-63
2023/12/10 00:41:25;;;;;;;;;;;;;;;8.69;88.75;99825.81;5012009;28;19921;-63
2023/12/10 00:43:50;;;;;;;;;;;;;;;8.68;88.61;99840.03;5018864;28;19921;-62
2023/12/10 00:46:15;;;;;;;;;;;;;;;8.50;89.76;99828.97;5018562;28;20345;-63
2023/12/10 00:48:40;;;;;;;;;;;;;;;8.28;90.51;99852.63;5017661;28;19921;-63
2023/12/10 00:51:06;;;;;;;;;;;;;;;8.12;91.43;99852.81;5019840;28;19967;-63
2023/12/10 00:53:31;;;;;;;;;;;;;;;8.08;92.52;99851.50;5011335;28;19928;-63
2023/12/10 00:55:57;;;;;;;;;;;;;;;7.99;92.91;99863.97;5014166;28;19920;-62
2023/12/10 00:58:22;;;;;;;;;;;;;;;7.84;93.99;99859.66;5015245;28;19921;-62
2023/12/10 01:00:47;;;;;;;;;;;;;;;7.73;94.69;99864.31;5020836;28;19921;-62
2023/12/10 01:03:12;;;;;;;;;;;;;;;7.65;95.60;99853.00;5019425;28;19921;-62
2023/12/10 01:05:37;;;;;;;;;;;;;;;7.61;96.70;99860.47;5023451;28;19921;-63
2023/12/10 01:08:03;;;;;;;;;;;;;;;7.53;97.61;99878.19;5020399;28;19927;-63
2023/12/10 01:10:29;;;;;;;;;;;;;;;7.45;98.32;99853.44;5015521;28;20008;-63
2023/12/10 01:12:54;;;;;;;;;;;;;;;7.42;98.26;99855.63;5020483;28;19929;-63
2023/12/10 01:15:29;;;;;;;;;;;;;;;7.51;97.99;99851.91;5021344;28;20686;-63
2023/12/10 01:17:56;;;;;;;;;;;;;;;7.72;97.78;99875.91;5020497;28;19927;-63
2023/12/10 01:20:21;;;;;;;;;;;;;;;7.93;97.04;99879.72;5020480;28;20671;-63
2023/12/10 01:22:46;;;;;;;;;;;;;;;8.06;95.77;99877.28;5023332;28;20388;-63
2023/12/10 01:25:13;;;;;;;;;;;;;;;8.11;95.37;99876.78;5019124;28;19928;-62
2023/12/10 01:27:39;;;;;;;;;;;;;;;8.18;94.34;99883.81;5020744;28;19932;-63
2023/12/10 01:30:05;;;;;;;;;;;;;;;8.12;94.35;99878.44;5016405;28;20184;-63
2023/12/10 01:32:30;;;;;;;;;;;;;;;7.97;94.74;99891.59;5016560;28;20591;-63
2023/12/10 01:34:55;;;;;;;;;;;;;;;7.77;95.94;99907.91;5020288;28;20020;-63
2023/12/10 01:37:20;;;;;;;;;;;;;;;7.59;97.62;99909.19;5018505;28;20547;-63
2023/12/10 01:39:46;;;;;;;;;;;;;;;7.53;98.63;99907.25;5019236;28;19921;-63
2023/12/10 01:42:11;;;;;;;;;;;;;;;7.42;99.69;99905.81;5011290;28;19925;-64
2023/12/10 01:44:36;;;;;;;;;;;;;;;7.30;100.00;99912.47;5022025;28;19944;-63
2023/12/10 01:47:02;;;;;;;;;;;;;;;7.26;100.00;99930.50;5016557;28;19929;-63
2023/12/10 01:49:28;;;;;;;;;;;;;;;7.22;100.00;99941.53;5013453;28;19917;-64
2023/12/10 01:51:53;;;;;;;;;;;;;;;7.11;100.00;99921.63;5017768;28;20468;-63
2023/12/10 01:54:22;;;;;;;;;;;;;;;7.02;100.00;99918.19;5021658;28;19921;-64
2023/12/10 01:56:51;;;;;;;;;;;;;;;6.97;100.00;99940.81;5012362;28;20386;-64
2023/12/10 01:59:18;;;;;;;;;;;;;;;6.93;100.00;99919.19;5014059;28;20535;-63
2023/12/10 02:01:43;;;;;;;;;;;;;;;6.88;100.00;99910.97;5008100;28;20048;-63
2023/12/10 02:04:09;;;;;;;;;;;;;;;6.85;100.00;99895.47;5018828;28;20015;-63
2023/12/10 02:06:34;;;;;;;;;;;;;;;6.89;100.00;99923.16;5017114;28;19959;-63
2023/12/10 02:08:59;;;;;;;;;;;;;;;6.84;100.00;99917.56;5015371;28;19928;-63
2023/12/10 02:11:25;;;;;;;;;;;;;;;6.80;100.00;99926.81;5016654;28;19925;-63
2023/12/10 02:13:51;;;;;;;;;;;;;;;6.77;100.00;99919.25;5021377;28;19921;-63
2023/12/10 02:16:16;;;;;;;;;;;;;;;6.73;100.00;99920.59;5014503;28;20381;-63
2023/12/10 02:18:42;;;;;;;;;;;;;;;6.76;100.00;99922.88;5010135;28;20341;-63
2023/12/10 02:21:08;;;;;;;;;;;;;;;6.74;100.00;99952.06;5011293;28;20336;-63
2023/12/10 02:23:36;;;;;;;;;;;;;;;6.80;100.00;99918.91;5016360;28;19917;-63
2023/12/10 02:26:02;;;;;;;;;;;;;;;6.77;100.00;99935.09;5018085;28;19932;-63
2023/12/10 02:28:27;;;;;;;;;;;;;;;6.77;100.00;99930.63;5009203;28;19922;-63
2023/12/10 02:30:52;;;;;;;;;;;;;;;6.83;100.00;99939.69;5015358;28;19925;-63
2023/12/10 02:33:18;;;;;;;;;;;;;;;6.86;100.00;99944.63;5014725;28;20440;-63
2023/12/10 02:35:43;;;;;;;;;;;;;;;6.82;100.00;99943.31;5014473;28;19918;-62
2023/12/10 02:38:08;;;;;;;;;;;;;;;6.78;100.00;99934.09;5011782;28;19925;-63
2023/12/10 02:40:33;;;;;;;;;;;;;;;6.75;100.00;99955.53;5012679;28;19949;-63
2023/12/10 02:43:00;;;;;;;;;;;;;;;6.80;100.00;99932.09;5007106;28;19921;-63
2023/12/10 02:45:25;;;;;;;;;;;;;;;6.81;100.00;99936.38;5012061;28;19957;-63
2023/12/10 02:47:51;;;;;;;;;;;;;;;6.79;100.00;99938.38;5013621;28;20301;-63
2023/12/10 02:50:16;;;;;;;;;;;;;;;6.76;100.00;99936.91;5016974;28;19931;-63
2023/12/10 02:52:41;;;;;;;;;;;;;;;6.76;100.00;99951.91;5021482;28;19921;-63
2023/12/10 02:55:09;;;;;;;;;;;;;;;6.83;100.00;99950.22;5018455;28;20376;-62
2023/12/10 02:57:34;;;;;;;;;;;;;;;6.79;100.00;99954.22;5016118;28;20448;-63
2023/12/10 02:59:59;;;;;;;;;;;;;;;6.77;100.00;99966.75;5014087;28;19917;-63
2023/12/10 03:02:24;;;;;;;;;;;;;;;6.77;100.00;99948.28;5012410;28;19974;-63
2023/12/10 03:04:49;;;;;;;;;;;;;;;6.78;100.00;99963.13;5023838;28;20099;-63
2023/12/10 03:07:15;;;;;;;;;;;;;;;6.82;100.00;99986.34;5015681;28;19944;-63
2023/12/10 03:09:40;;;;;;;;;;;;;;;6.87;100.00;99961.28;5023021;28;19932;-63
2023/12/10 03:12:05;;;;;;;;;;;;;;;6.93;100.00;99968.50;5024656;28;19927;-63
2023/12/10 03:14:31;;;;;;;;;;;;;;;6.93;100.00;99977.25;5021994;28;19932;-63
2023/12/10 03:16:56;;;;;;;;;;;;;;;7.05;100.00;99973.28;5022224;28;19928;-62
2023/12/10 03:19:21;;;;;;;;;;;;;;;7.37;100.00;100011.97;5022610;28;19956;-63
2023/12/10 03:21:46;;;;;;;;;;;;;;;7.64;100.00;99971.09;5021439;28;20603;-63
2023/12/10 03:24:12;;;;;;;;;;;;;;;7.76;98.28;99985.53;5022144;28;19920;-63
2023/12/10 03:26:37;;;;;;;;;;;;;;;7.92;96.52;99979.34;5019903;28;19937;-63
2023/12/10 03:29:02;;;;;;;;;;;;;;;8.01;95.60;100012.66;5021319;28;20302;-63
2023/12/10 03:31:27;;;;;;;;;;;;;;;8.11;94.82;100022.22;5022253;28;20640;-63
2023/12/10 03:33:52;;;;;;;;;;;;;;;8.24;93.29;100004.75;5021950;28;20428;-63
2023/12/10 03:36:18;;;;;;;;;;;;;;;8.40;92.36;100008.34;5018328;28;19947;-63
2023/12/10 03:38:43;;;;;;;;;;;;;;;8.51;90.21;100011.38;5018764;28;19932;-63
2023/12/10 03:41:08;;;;;;;;;;;;;;;8.65;88.73;99988.59;5017496;28;19921;-63
2023/12/10 03:43:34;;;;;;;;;;;;;;;8.68;87.63;100006.78;5015716;28;19976;-63
2023/12/10 03:45:59;;;;;;;;;;;;;;;8.68;86.56;100034.06;5018505;28;20688;-63
2023/12/10 03:48:24;;;;;;;;;;;;;;;8.79;86.10;99987.00;5012815;28;19921;-63
2023/12/10 03:50:51;;;;;;;;;;;;;;;8.79;85.25;100024.88;5018997;28;19944;-64
2023/12/10 03:53:16;;;;;;;;;;;;;;;8.79;84.92;100032.81;5018267;28;20401;-63
2023/12/10 03:55:41;;;;;;;;;;;;;;;8.78;84.26;100017.94;5021612;28;19921;-63
2023/12/10 03:58:07;;;;;;;;;;;;;;;8.88;83.85;100044.16;5016901;28;20337;-62
2023/12/10 04:00:32;;;;;;;;;;;;;;;8.86;83.04;100033.75;5018302;28;19921;-63
2023/12/10 04:02:57;;;;;;;;;;;;;;;8.89;82.92;100016.69;5022928;28;20004;-64
2023/12/10 04:05:22;;;;;;;;;;;;;;;8.81;83.10;100009.63;5014565;28;19961;-63
2023/12/10 04:07:50;;;;;;;;;;;;;;;8.87;82.15;100048.63;5014481;28;20039;-63
2023/12/10 04:10:16;;;;;;;;;;;;;;;8.99;81.78;100049.03;5021067;28;20757;-63
2023/12/10 04:12:41;;;;;;;;;;;;;;;9.00;81.16;100053.31;5024584;28;19920;-63
2023/12/10 04:15:06;;;;;;;;;;;;;;;9.03;81.09;100068.03;5018937;28;20015;-63
2023/12/10 04:17:31;;;;;;;;;;;;;;;9.03;80.81;100068.84;5017174;28;19921;-63
2023/12/10 04:19:57;;;;;;;;;;;;;;;9.09;79.96;100051.41;5015508;28;19917;-63
2023/12/10 04:22:22;;;;;;;;;;;;;;;9.11;80.33;100079.38;5015294;28;20525;-63
2023/12/10 04:24:47;;;;;;;;;;;;;;;9.12;80.30;100045.75;5021883;28;20018;-63
2023/12/10 04:27:12;;;;;;;;;;;;;;;9.12;80.28;100088.13;5012624;28;19968;-63
2023/12/10 04:29:38;;;;;;;;;;;;;;;9.13;80.65;100058.81;5021047;28;19921;-63
2023/12/10 04:32:04;;;;;;;;;;;;;;;9.02;79.98;100111.41;5015423;28;20046;-63
2023/12/10 04:34:29;;;;;;;;;;;;;;;9.07;79.58;100099.28;5011839;28;19922;-63
2023/12/10 04:36:54;;;;;;;;;;;;;;;9.12;79.16;100096.09;5016575;28;19932;-63
2023/12/10 04:39:20;;;;;;;;;;;;;;;9.16;79.41;100095.53;5008251;28;20350;-63
2023/12/10 04:41:45;;;;;;;;;;;;;;;9.13;79.77;100127.69;5013801;28;19921;-63
2023/12/10 04:44:10;;;;;;;;;;;;;;;9.14;79.03;100092.25;5013901;28;19921;-63
2023/12/10 04:46:35;;;;;;;;;;;;;;;9.12;79.02;100135.81;5019619;28;19925;-63
2023/12/10 04:49:01;;;;;;;;;;;;;;;9.17;78.89;100106.97;5017395;28;19971;-63
2023/12/10 04:51:27;;;;;;;;;;;;;;;9.10;78.54;100101.56;5016409;28;19921;-63
2023/12/10 04:53:52;;;;;;;;;;;;;;;9.19;78.99;100095.19;5012703;28;19917;-63
2023/12/10 04:56:17;;;;;;;;;;;;;;;9.13;78.99;100108.31;5016723;28;20016;-63
2023/12/10 04:58:42;;;;;;;;;;;;;;;9.18;78.98;100130.63;5024539;28;19917;-63
2023/12/10 05:01:08;;;;;;;;;;;;;;;9.12;78.40;100109.31;5021169;28;19917;-63
2023/12/10 05:03:33;;;;;;;;;;;;;;;9.13;78.56;100133.00;5021268;28;19948;-64
2023/12/10 05:05:58;;;;;;;;;;;;;;;9.15;79.05;100130.16;5017926;28;19928;-63
2023/12/10 05:08:23;;;;;;;;;;;;;;;9.03;79.24;100177.44;5021591;28;20341;-63
2023/12/10 05:10:48;;;;;;;;;;;;;;;9.06;79.02;100161.19;5015422;28;20283;-63
2023/12/10 05:13:14;;;;;;;;;;;;;;;9.05;79.42;100153.44;5022324;28;19964;-63
2023/12/10 05:15:39;;;;;;;;;;;;;;;9.08;79.12;100158.38;5021570;28;19932;-63
2023/12/10 05:18:04;;;;;;;;;;;;;;;9.04;78.58;100196.81;5021872;28;19925;-63
2023/12/10 05:20:30;;;;;;;;;;;;;;;9.10;78.27;100174.91;5019380;28;20405;-64
2023/12/10 05:22:55;;;;;;;;;;;;;;;9.15;78.35;100160.13;5024116;28;19925;-63
2023/12/10 05:25:20;;;;;;;;;;;;;;;9.16;78.55;100153.81;5019045;28;20624;-63
2023/12/10 05:27:46;;;;;;;;;;;;;;;9.09;78.61;100179.38;5020415;28;20392;-64
2023/12/10 05:30:11;;;;;;;;;;;;;;;9.06;78.97;100158.53;5020971;28;20390;-63
2023/12/10 05:32:37;;;;;;;;;;;;;;;9.09;79.04;100174.06;5015141;28;20016;-63
2023/12/10 05:35:02;;;;;;;;;;;;;;;9.13;78.62;100163.94;5014074;28;19981;-63
2023/12/10 05:37:28;;;;;;;;;;;;;;;9.14;78.22;100218.56;5018344;28;20033;-63
2023/12/10 05:39:53;;;;;;;;;;;;;;;9.15;78.31;100177.84;5017565;28;19917;-63
2023/12/10 05:42:18;;;;;;;;;;;;;;;9.07;78.05;100188.50;5018789;28;19926;-63
2023/12/10 05:44:43;;;;;;;;;;;;;;;9.13;78.13;100185.97;5018727;28;20008;-63
2023/12/10 05:47:09;;;;;;;;;;;;;;;9.08;78.39;100198.09;5017678;28;19963;-63
2023/12/10 05:49:34;;;;;;;;;;;;;;;9.14;78.04;100203.50;5017486;28;20118;-63
2023/12/10 05:51:59;;;;;;;;;;;;;;;9.16;78.09;100211.28;5019442;28;20028;-63
2023/12/10 05:54:24;;;;;;;;;;;;;;;9.07;78.18;100258.19;5011424;28;19932;-63
2023/12/10 05:56:50;;;;;;;;;;;;;;;9.12;78.11;100241.75;5019184;28;19955;-63
2023/12/10 05:59:16;;;;;;;;;;;;;;;9.19;77.97;100206.44;5014625;28;19932;-63
2023/12/10 06:01:41;;;;;;;;;;;;;;;9.09;78.05;100253.53;5018718;28;19928;-63
2023/12/10 06:04:06;;;;;;;;;;;;;;;9.16;78.00;100283.63;5016488;28;19921;-62
2023/12/10 06:06:32;;;;;;;;;;;;;;;9.19;78.05;100259.44;5011462;28;20701;-63
2023/12/10 06:08:57;;;;;;;;;;;;;;;9.23;77.94;100250.13;5014141;28;19921;-63
2023/12/10 06:11:22;;;;;;;;;;;;;;;9.19;77.75;100258.59;5013444;28;19921;-63
2023/12/10 06:13:47;;;;;;;;;;;;;;;9.22;77.78;100263.53;5014780;28;20492;-63
2023/12/10 06:16:13;;;;;;;;;;;;;;;9.13;78.09;100270.72;5019876;28;19921;-63
2023/12/10 06:18:38;;;;;;;;;;;;;;;9.12;78.06;100262.97;5017822;28;19917;-63
2023/12/10 06:21:04;;;;;;;;;;;;;;;9.10;78.10;100260.47;5020628;28;20611;-63
2023/12/10 06:23:30;;;;;;;;;;;;;;;9.08;78.52;100249.25;5012888;28;20035;-63
2023/12/10 06:25:55;;;;;;;;;;;;;;;9.07;78.21;100254.72;5014266;28;20433;-63
2023/12/10 06:28:20;;;;;;;;;;;;;;;9.10;78.46;100267.59;5011328;28;19921;-63
2023/12/10 06:30:46;;;;;;;;;;;;;;;9.07;78.21;100297.91;5013112;28;19964;-63
2023/12/10 06:33:11;;;;;;;;;;;;;;;9.00;78.48;100324.28;5012385;28;19932;-63
2023/12/10 06:35:36;;;;;;;;;;;;;;;9.13;78.17;100317.59;5016906;28;19999;-63
2023/12/10 06:38:01;;;;;;;;;;;;;;;9.06;78.26;100314.00;5020293;28;20390;-63
2023/12/10 06:40:26;;;;;;;;;;;;;;;9.09;78.42;100345.41;5016645;28;19974;-63
2023/12/10 06:42:52;;;;;;;;;;;;;;;9.11;78.48;100332.81;5009859;28;19928;-64
2023/12/10 06:45:17;;;;;;;;;;;;;;;9.10;78.19;100336.47;5012220;28;19925;-63
2023/12/10 06:47:42;;;;;;;;;;;;;;;9.16;78.35;100363.09;5006580;28;19935;-64
2023/12/10 06:50:08;;;;;;;;;;;;;;;9.05;78.60;100352.91;5012329;28;20380;-63
2023/12/10 06:52:33;;;;;;;;;;;;;;;9.03;78.66;100360.19;5020989;28;19924;-63
2023/12/10 06:54:58;;;;;;;;;;;;;;;9.05;78.48;100352.91;5020988;28;20012;-63
2023/12/10 06:57:23;;;;;;;;;;;;;;;9.05;78.43;100357.38;5021560;28;19928;-63
2023/12/10 06:59:49;;;;;;;;;;;;;;;9.06;78.51;100369.63;5020323;28;19923;-63
2023/12/10 07:02:14;;;;;;;;;;;;;;;9.02;78.50;100366.47;5019836;28;19913;-63
2023/12/10 07:04:39;;;;;;;;;;;;;;;9.02;78.61;100374.44;5016750;28;19917;-63
2023/12/10 07:07:04;;;;;;;;;;;;;;;9.03;78.63;100369.97;5019652;28;20462;-63
2023/12/10 07:09:29;;;;;;;;;;;;;;;9.00;78.70;100376.44;5014607;28;19917;-63
2023/12/10 07:11:55;;;;;;;;;;;;;;;9.04;78.84;100376.91;5015229;28;20018;-63
2023/12/10 07:14:20;;;;;;;;;;;;;;;9.04;78.76;100374.25;5017460;28;19986;-63
2023/12/10 07:16:45;;;;;;;;;;;;;;;9.05;78.35;100394.44;5019045;28;19932;-63
2023/12/10 07:19:11;;;;;;;;;;;;;;;9.02;78.51;100387.66;5016601;28;20279;-63
2023/12/10 07:21:36;;;;;;;;;;;;;;;8.99;78.33;100380.91;5016689;28;20341;-63
2023/12/10 07:24:02;;;;;;;;;;;;;;;9.06;78.08;100401.41;5011213;28;19921;-63
2023/12/10 07:26:28;;;;;;;;;;;;;;;9.00;77.90;100394.97;5012189;28;19931;-63
2023/12/10 07:28:53;;;;;;;;;;;;;;;9.03;78.02;100407.03;5017813;28;19921;-63
2023/12/10 07:31:18;;;;;;;;;;;;;;;9.03;77.96;100407.03;5010894;28;20674;-64
2023/12/10 07:33:44;;;;;;;;;;;;;;;9.07;78.02;100426.88;5012276;28;20024;-63
2023/12/10 07:36:10;;;;;;;;;;;;;;;9.05;78.12;100431.53;5013384;28;19928;-63
2023/12/10 07:38:35;;;;;;;;;;;;;;;9.03;77.79;100431.69;5012508;28;19927;-63
2023/12/10 07:41:00;;;;;;;;;;;;;;;8.97;77.86;100458.88;5017385;28;19921;-63
2023/12/10 07:43:25;;;;;;;;;;;;;;;9.06;77.92;100473.72;5012895;28;19922;-63
2023/12/10 07:45:50;;;;;;;;;;;;;;;8.97;78.35;100459.69;5016907;28;19921;-63
2023/12/10 07:48:16;;;;;;;;;;;;;;;8.94;78.41;100456.53;5014231;28;19975;-64
2023/12/10 07:50:41;;;;;;;;;;;;;;;9.00;78.49;100461.19;5015304;28;19921;-63
2023/12/10 07:53:06;;;;;;;;;;;;;;;8.95;78.86;100469.59;5019238;28;19921;-63
2023/12/10 07:55:31;;;;;;;;;;;;;;;8.97;78.59;100472.94;5014744;28;19975;-63
2023/12/10 07:57:57;;;;;;;;;;;;;;;9.01;78.54;100484.03;5018080;28;20554;-63
2023/12/10 08:00:22;;;;;;;;;;;;;;;9.02;78.75;100493.63;5015417;28;19921;-63
2023/12/10 08:02:47;;;;;;;;;;;;;;;9.02;78.62;100482.19;5015031;28;19976;-63
2023/12/10 08:05:13;;;;;;;;;;;;;;;8.97;78.54;100478.25;5010348;28;20309;-63
2023/12/10 08:07:38;;;;;;;;;;;;;;;9.02;78.89;100492.78;5014565;28;20433;-63
2023/12/10 08:10:05;;;;;;;;;;;;;;;8.97;78.99;100485.34;5014686;28;20024;-63
2023/12/10 08:12:30;;;;;;;;;;;;;;;8.98;78.87;100487.84;5014199;28;19925;-62
2023/12/10 08:14:55;;;;;;;;;;;;;;;8.97;79.24;100488.00;5021285;28;19933;-63
2023/12/10 08:17:21;;;;;;;;;;;;;;;9.02;79.05;100514.81;5013990;28;20489;-64
2023/12/10 08:19:46;;;;;;;;;;;;;;;9.02;79.40;100527.22;5009470;28;19921;-63
2023/12/10 08:22:13;;;;;;;;;;;;;;;8.99;79.02;100520.44;5011401;28;19923;-63
2023/12/10 08:24:39;;;;;;;;;;;;;;;8.98;79.59;100522.25;5010843;28;20019;-61
2023/12/10 08:27:04;;;;;;;;;;;;;;;8.89;79.65;100531.19;5010408;28;20027;-61
2023/12/10 08:29:29;;;;;;;;;;;;;;;8.89;79.69;100538.31;5018215;28;19921;-61
2023/12/10 08:31:54;;;;;;;;;;;;;;;8.93;79.99;100543.09;5015864;28;19920;-61
2023/12/10 08:34:20;;;;;;;;;;;;;;;8.89;80.13;100544.44;5010402;28;20028;-61
2023/12/10 08:36:45;;;;;;;;;;;;;;;8.89;80.38;100555.03;5012313;28;19924;-61
2023/12/10 08:39:10;;;;;;;;;;;;;;;8.86;80.31;100552.72;5007787;28;22858;-62
2023/12/10 08:41:36;;;;;;;;;;;;;;;8.83;80.61;100554.88;5010702;28;20298;-61
2023/12/10 08:44:01;;;;;;;;;;;;;;;8.78;81.13;100563.31;5013212;28;20326;-61
2023/12/10 08:46:27;;;;;;;;;;;;;;;8.78;81.48;100565.97;5013959;28;19995;-61
2023/12/10 08:48:52;;;;;;;;;;;;;;;8.86;81.29;100576.53;5017334;28;19960;-63
2023/12/10 08:51:17;;;;;;;;;;;;;;;8.88;81.19;100569.25;5005562;28;19960;-62
2023/12/10 08:53:42;;;;;;;;;;;;;;;8.81;81.57;100581.50;5010736;28;19928;-62
2023/12/10 08:56:08;;;;;;;;;;;;;;;8.86;81.42;100575.72;5019941;28;19929;-63
2023/12/10 08:58:33;;;;;;;;;;;;;;;8.84;81.47;100575.88;5020320;28;20402;-64
2023/12/10 09:00:59;;;;;;;;;;;;;;;8.87;81.53;100585.31;5020836;28;19925;-63
2023/12/10 09:03:24;;;;;;;;;;;;;;;8.80;82.04;100587.81;5013421;28;20526;-63
2023/12/10 09:05:50;;;;;;;;;;;;;;;8.80;82.24;100579.84;5016664;28;19943;-63
2023/12/10 09:08:16;;;;;;;;;;;;;;;8.80;82.36;100614.28;5020758;28;19929;-63
2023/12/10 09:10:41;;;;;;;;;;;;;;;8.84;82.34;100583.00;5021035;28;19931;-63
2023/12/10 09:13:07;;;;;;;;;;;;;;;8.78;82.19;100592.44;5018415;28;19928;-63
2023/12/10 09:15:32;;;;;;;;;;;;;;;8.79;82.32;100595.91;5022078;28;21615;-63
2023/12/10 09:17:57;;;;;;;;;;;;;;;8.78;82.73;100588.97;5021955;28;20428;-63
2023/12/10 09:20:22;;;;;;;;;;;;;;;8.77;82.59;100593.44;5018528;28;19921;-63
2023/12/10 09:22:48;;;;;;;;;;;;;;;8.76;82.91;100581.19;5020951;28;19933;-64
2023/12/10 09:25:13;;;;;;;;;;;;;;;8.77;82.87;100601.38;5019861;28;19921;-63
2023/12/10 09:27:38;;;;;;;;;;;;;;;8.77;82.74;100598.72;5019920;28;19986;-63
2023/12/10 09:30:03;;;;;;;;;;;;;;;8.75;83.08;100603.34;5021638;28;19943;-64
2023/12/10 09:32:29;;;;;;;;;;;;;;;8.73;83.41;100602.69;5016602;28;19963;-63
2023/12/10 09:34:55;;;;;;;;;;;;;;;8.71;83.50;100595.91;5016466;28;19982;-63
2023/12/10 09:37:20;;;;;;;;;;;;;;;8.78;83.58;100599.56;5019593;28;19924;-63
2023/12/10 09:39:46;;;;;;;;;;;;;;;8.81;83.58;100623.88;5017091;28;20700;-63
2023/12/10 09:42:11;;;;;;;;;;;;;;;8.79;83.42;100601.22;5015457;28;19960;-63
2023/12/10 09:44:36;;;;;;;;;;;;;;;8.79;83.94;100599.38;5021010;28;19963;-63
2023/12/10 09:47:03;;;;;;;;;;;;;;;8.77;83.97;100603.19;5014223;28;19932;-63
2023/12/10 09:49:30;;;;;;;;;;;;;;;8.80;84.18;100613.44;5017589;28;20374;-63
2023/12/10 09:51:55;;;;;;;;;;;;;;;8.69;84.87;100612.78;5020822;28;19921;-63
2023/12/10 09:54:20;;;;;;;;;;;;;;;8.72;85.29;100595.75;5020785;28;20026;-63
2023/12/10 09:56:48;;;;;;;;;;;;;;;8.80;85.73;100592.28;5017759;28;19925;-63
2023/12/10 09:59:14;;;;;;;;;;;;;;;8.84;85.91;100599.72;5015367;28;19921;-63
2023/12/10 10:01:43;;;;;;;;;;;;;;;8.86;85.90;100592.44;5013167;28;19924;-63
2023/12/10 10:04:10;;;;;;;;;;;;;;;8.89;86.13;100600.03;5016532;28;19921;-63
2023/12/10 10:06:35;;;;;;;;;;;;;;;8.95;86.74;100602.03;5012572;28;19925;-63
2023/12/10 10:09:01;;;;;;;;;;;;;;;8.98;86.68;100604.38;5015470;28;19979;-64
2023/12/10 10:11:26;;;;;;;;;;;;;;;9.02;86.40;100606.69;5012339;28;19925;-63
2023/12/10 10:13:53;;;;;;;;;;;;;;;9.06;86.44;100621.25;5019360;28;20420;-63
2023/12/10 10:16:18;;;;;;;;;;;;;;;9.00;87.14;100636.81;5015555;28;20336;-63
2023/12/10 10:18:46;;;;;;;;;;;;;;;9.06;87.14;100618.59;5014079;28;19925;-64
2023/12/10 10:21:11;;;;;;;;;;;;;;;9.09;87.27;100587.28;5015291;28;19917;-63
2023/12/10 10:23:36;;;;;;;;;;;;;;;9.12;87.19;100586.97;5009434;28;19921;-63
2023/12/10 10:26:02;;;;;;;;;;;;;;;9.04;87.45;100594.09;5009325;28;19928;-63
2023/12/10 10:28:29;;;;;;;;;;;;;;;9.02;87.51;100590.78;5010916;28;19983;-63
2023/12/10 10:30:56;;;;;;;;;;;;;;;9.16;87.87;100590.94;5013964;28;20000;-63
2023/12/10 10:33:21;;;;;;;;;;;;;;;9.21;88.08;100590.41;5009232;28;19917;-63
2023/12/10 10:35:47;;;;;;;;;;;;;;;9.35;87.86;100594.22;5014494;28;19928;-63
2023/12/10 10:38:12;;;;;;;;;;;;;;;9.30;87.68;100613.28;5013875;28;20457;-63
2023/12/10 10:40:38;;;;;;;;;;;;;;;9.36;87.20;100596.69;5011306;28;19917;-63
2023/12/10 10:43:03;;;;;;;;;;;;;;;9.35;87.10;100602.16;5011795;28;19917;-63
2023/12/10 10:45:28;;;;;;;;;;;;;;;9.45;87.07;100602.81;5013593;28;19922;-63
2023/12/10 10:47:54;;;;;;;;;;;;;;;9.46;86.04;100604.47;5018638;28;19944;-63
2023/12/10 10:50:20;;;;;;;;;;;;;;;9.52;85.66;100604.59;5013608;28;19921;-63
2023/12/10 10:52:46;;;;;;;;;;;;;;;9.47;85.25;100625.50;5013811;28;19957;-63
2023/12/10 10:55:12;;;;;;;;;;;;;;;9.53;85.03;100590.34;5011717;28;19986;-63
2023/12/10 10:57:38;;;;;;;;;;;;;;;9.57;85.20;100599.66;5016912;28;19917;-62
2023/12/10 11:00:20;;;;;;;;;;;;;;;9.61;84.97;100593.00;5020110;28;20024;-63
2023/12/10 11:02:46;;;;;;;;;;;;;;;9.62;84.93;100593.81;5008868;28;20452;-63
2023/12/10 11:05:14;;;;;;;;;;;;;;;9.67;84.29;100601.25;5010845;28;20000;-63
2023/12/10 11:07:42;;;;;;;;;;;;;;;9.70;84.14;100583.19;5014219;28;20464;-63
2023/12/10 11:10:07;;;;;;;;;;;;;;;9.71;84.02;100589.31;5020312;28;20006;-63
2023/12/10 11:12:39;;;;;;;;;;;;;;;9.77;83.50;100593.94;5017082;28;19953;-63
2023/12/10 11:15:04;;;;;;;;;;;;;;;9.76;83.37;100597.56;5027189;28;19917;-63
2023/12/10 11:17:29;;;;;;;;;;;;;;;9.82;82.93;100583.63;5019198;28;19929;-62
2023/12/10 11:19:57;;;;;;;;;;;;;;;9.83;82.75;100583.47;5019223;28;19921;-63
2023/12/10 11:22:22;;;;;;;;;;;;;;;9.76;82.68;100565.75;5013557;28;20070;-63
2023/12/10 11:24:49;;;;;;;;;;;;;;;9.83;82.95;100558.75;5016180;28;19925;-63
2023/12/10 11:27:14;;;;;;;;;;;;;;;9.85;82.78;100578.00;5016853;28;19925;-63
2023/12/10 11:29:39;;;;;;;;;;;;;;;9.92;82.76;100568.34;5019136;28;19928;-63
2023/12/10 11:32:05;;;;;;;;;;;;;;;9.96;82.72;100569.66;5020998;28;19921;-63
2023/12/10 11:34:31;;;;;;;;;;;;;;;9.93;83.07;100557.56;5016489;28;19944;-63
2023/12/10 11:36:56;;;;;;;;;;;;;;;10.00;82.83;100555.03;5018933;28;19921;-63
2023/12/10 11:39:21;;;;;;;;;;;;;;;10.10;82.95;100557.47;5019573;28;19944;-64
2023/12/10 11:41:47;;;;;;;;;;;;;;;10.20;82.77;100558.94;5021965;28;19957;-63
2023/12/10 11:44:12;;;;;;;;;;;;;;;10.28;82.85;100554.59;5021963;28;20428;-63
2023/12/10 11:46:38;;;;;;;;;;;;;;;10.32;82.61;100558.53;5025279;28;20410;-63
2023/12/10 11:49:03;;;;;;;;;;;;;;;10.38;81.87;100571.09;5020025;28;20466;-63
2023/12/10 11:51:29;;;;;;;;;;;;;;;10.49;81.90;100554.78;5020407;28;19925;-63
2023/12/10 11:53:54;;;;;;;;;;;;;;;10.53;81.77;100558.72;5021855;28;20289;-63
2023/12/10 11:56:20;;;;;;;;;;;;;;;10.58;81.68;100564.34;5021112;28;19973;-63
2023/12/10 11:58:45;;;;;;;;;;;;;;;10.40;81.72;100559.31;5023959;28;19920;-63
2023/12/10 12:01:10;;;;;;;;;;;;;;;10.36;81.59;100559.84;5023199;28;20002;-63
2023/12/10 12:03:35;;;;;;;;;;;;;;;10.28;81.86;100562.56;5021446;28;19933;-63
2023/12/10 12:06:03;;;;;;;;;;;;;;;10.21;82.36;100571.22;5017454;28;19994;-62
2023/12/10 12:08:28;;;;;;;;;;;;;;;10.10;82.34;100568.09;5019595;28;20013;-63
2023/12/10 12:10:54;;;;;;;;;;;;;;;10.04;83.02;100558.16;5022717;28;20108;-63
2023/12/10 12:13:20;;;;;;;;;;;;;;;9.98;83.47;100572.97;5020183;28;20404;-64
2023/12/10 12:15:45;;;;;;;;;;;;;;;9.93;83.31;100580.63;5023078;28;19921;-63
2023/12/10 12:18:11;;;;;;;;;;;;;;;9.87;83.96;100568.88;5017983;28;19928;-63
2023/12/10 12:20:37;;;;;;;;;;;;;;;9.87;83.99;100562.75;5014449;28;19927;-63
2023/12/10 12:23:02;;;;;;;;;;;;;;;9.86;84.51;100556.63;5016506;28;19976;-63
2023/12/10 12:25:27;;;;;;;;;;;;;;;9.84;84.78;100548.00;5016254;28;19944;-65
2023/12/10 12:27:52;;;;;;;;;;;;;;;9.85;84.91;100547.00;5007394;28;19976;-64
2023/12/10 12:30:18;;;;;;;;;;;;;;;9.84;84.77;100545.34;5010471;28;19953;-63
2023/12/10 12:32:43;;;;;;;;;;;;;;;9.84;84.98;100529.44;5021965;28;19921;-63
2023/12/10 12:35:08;;;;;;;;;;;;;;;9.87;85.38;100520.31;5016406;28;19918;-63
2023/12/10 12:37:34;;;;;;;;;;;;;;;9.87;85.81;100520.31;5021188;28;19924;-64